createdAt,value
2023-03-11T00:01:29.438Z,9.30
2023-03-11T00:06:36.128Z,51.80
2023-03-11T00:11:39.236Z,6.90
2023-03-11T00:16:42.405Z,8.07
2023-03-11T00:21:46.988Z,5.70
2023-03-11T00:26:50.163Z,8.15
2023-03-11T00:31:53.380Z,11.57
2023-03-11T00:36:57.944Z,10.70
2023-03-11T00:42:01.320Z,9.40
2023-03-11T00:47:04.540Z,10.68
2023-03-11T00:52:09.164Z,5.32
2023-03-11T00:57:12.328Z,9.02
2023-03-11T01:02:15.477Z,6.97
2023-03-11T01:07:20.028Z,2.53
2023-03-11T01:12:23.189Z,3.83
2023-03-11T01:17:26.351Z,1.75
2023-03-11T01:22:30.960Z,2.67
2023-03-11T01:27:34.103Z,1.73
2023-03-11T01:32:37.346Z,1.55
2023-03-11T01:37:42.165Z,1.40
2023-03-11T01:47:48.185Z,2.72
2023-03-11T01:52:52.796Z,1.70
2023-03-11T01:57:56.633Z,2.95
2023-03-11T02:03:03.348Z,5.00
2023-03-11T02:08:09.147Z,3.13
2023-03-11T02:13:13.016Z,7.95
2023-03-11T02:18:18.695Z,3.67
2023-03-11T02:23:28.929Z,3.35
2023-03-11T02:28:36.130Z,3.03
2023-03-11T02:33:39.639Z,2.38
2023-03-11T02:38:42.776Z,2.70
2023-03-11T02:43:48.206Z,3.30
2023-03-11T02:48:52.541Z,2.10
2023-03-11T02:54:01.078Z,3.88
2023-03-11T02:59:05.664Z,4.65
2023-03-11T03:04:08.913Z,5.20
2023-03-11T03:09:12.236Z,3.78
2023-03-11T03:14:16.834Z,4.00
2023-03-11T03:19:20.081Z,4.30
2023-03-11T03:24:23.220Z,4.10
2023-03-11T03:29:27.854Z,4.60
2023-03-11T03:34:30.996Z,5.13
2023-03-11T03:39:34.312Z,5.10
2023-03-11T03:44:38.857Z,4.30
2023-03-11T03:49:42.049Z,5.30
2023-03-11T03:54:45.289Z,7.05
2023-03-11T03:59:49.833Z,4.97
2023-03-11T04:04:53.079Z,7.03
2023-03-11T04:09:56.191Z,5.00
2023-03-11T04:15:00.796Z,6.03
2023-03-11T04:20:04.479Z,4.07
2023-03-11T04:25:08.766Z,6.28
2023-03-11T04:30:14.574Z,4.68
2023-03-11T04:35:17.806Z,4.40
2023-03-11T04:40:21.280Z,8.10
2023-03-11T04:45:25.813Z,5.25
2023-03-11T04:50:28.987Z,5.25
2023-03-11T04:55:33.541Z,4.68
2023-03-11T05:00:38.255Z,6.00
2023-03-11T05:05:41.481Z,7.18
2023-03-11T05:10:44.700Z,5.80
2023-03-11T05:15:49.911Z,6.80
2023-03-11T05:20:53.644Z,7.15
2023-03-11T05:25:56.922Z,5.28
2023-03-11T05:31:01.707Z,5.22
2023-03-11T05:41:09.188Z,5.68
2023-03-11T05:46:14.263Z,7.47
2023-03-11T05:51:17.526Z,5.82
2023-03-11T05:56:22.468Z,6.05
2023-03-11T06:01:27.320Z,5.32
2023-03-11T06:11:33.976Z,5.05
2023-03-11T06:16:38.719Z,7.93
2023-03-11T06:26:45.317Z,6.40
2023-03-11T06:31:50.000Z,6.07
2023-03-11T06:36:54.946Z,5.50
2023-03-11T06:47:03.840Z,8.02
2023-03-11T06:52:07.783Z,7.60
2023-03-11T06:57:12.017Z,5.85
2023-03-11T07:02:18.141Z,5.27
2023-03-11T07:07:21.645Z,7.30
2023-03-11T07:12:25.663Z,6.55
2023-03-11T07:17:30.312Z,5.67
2023-03-11T07:22:33.561Z,4.88
2023-03-11T07:27:36.870Z,5.00
2023-03-11T07:32:42.742Z,6.45
2023-03-11T07:37:46.004Z,5.07
2023-03-11T07:42:49.264Z,7.10
2023-03-11T07:47:54.103Z,5.85
2023-03-11T07:58:00.319Z,4.90
2023-03-11T08:03:04.996Z,5.93
2023-03-11T08:08:08.312Z,5.75
2023-03-11T08:13:11.536Z,5.80
2023-03-11T08:18:17.068Z,6.50
2023-03-11T08:23:20.420Z,6.00
2023-03-11T08:28:23.711Z,5.63
2023-03-11T08:33:28.700Z,5.57
2023-03-11T08:38:32.163Z,6.72
2023-03-11T08:43:36.081Z,8.38
2023-03-11T08:48:40.853Z,7.43
2023-03-11T08:53:44.184Z,7.82
2023-03-11T08:58:47.872Z,7.82
2023-03-11T09:03:52.771Z,9.35
2023-03-11T09:08:56.069Z,6.40
2023-03-11T09:13:59.334Z,8.48
2023-03-11T09:19:07.503Z,8.05
2023-03-11T09:24:10.849Z,8.10
2023-03-11T09:29:14.113Z,8.00
2023-03-11T09:34:18.819Z,12.45
2023-03-11T09:44:32.845Z,7.38
2023-03-11T09:49:50.188Z,8.70
2023-03-11T09:54:57.100Z,9.30
2023-03-11T10:00:03.646Z,8.68
2023-03-11T10:05:15.309Z,9.10
2023-03-11T10:10:19.666Z,6.53
2023-03-11T10:15:31.340Z,9.23
2023-03-11T10:20:47.062Z,11.15
2023-03-11T10:26:00.177Z,9.80
2023-03-11T10:31:09.039Z,8.27
2023-03-11T10:36:17.453Z,8.52
2023-03-11T10:41:25.253Z,9.00
2023-03-11T10:46:30.524Z,8.63
2023-03-11T10:51:36.600Z,8.10
2023-03-11T10:56:41.825Z,9.85
2023-03-11T11:01:56.496Z,8.43
2023-03-11T11:12:23.927Z,7.22
2023-03-11T11:17:31.476Z,9.18
2023-03-11T11:22:36.731Z,7.35
2023-03-11T11:27:39.905Z,6.10
2023-03-11T11:32:43.269Z,6.95
2023-03-11T11:37:49.917Z,6.85
2023-03-11T11:42:56.921Z,8.25
2023-03-11T11:48:04.498Z,8.48
2023-03-11T11:53:20.645Z,9.30
2023-03-11T11:58:24.135Z,8.20
2023-03-11T12:03:53.856Z,7.28
2023-03-11T12:09:08.625Z,5.90
2023-03-11T12:19:26.991Z,10.70
2023-03-11T12:24:51.523Z,8.50
2023-03-11T12:29:57.726Z,8.82
2023-03-11T12:35:05.663Z,11.38
2023-03-11T12:40:57.546Z,9.60
2023-03-11T12:46:02.576Z,9.75
2023-03-11T12:51:06.461Z,7.15
2023-03-11T12:56:18.433Z,11.33
2023-03-11T13:01:41.970Z,10.45
2023-03-11T13:07:08.352Z,7.60
2023-03-11T13:12:44.076Z,10.20
2023-03-11T13:18:00.365Z,8.27
2023-03-11T13:23:22.530Z,8.25
2023-03-11T13:28:51.161Z,11.02
2023-03-11T13:33:57.748Z,5.57
2023-03-11T13:39:31.805Z,7.80
2023-03-11T13:44:38.048Z,6.40
2023-03-11T13:49:46.536Z,6.97
2023-03-11T13:54:55.332Z,7.97
2023-03-11T13:59:59.426Z,10.32
2023-03-11T14:05:08.179Z,9.97
2023-03-11T14:10:23.153Z,11.52
2023-03-11T14:15:28.081Z,9.15
2023-03-11T14:20:32.777Z,13.23
2023-03-11T14:30:40.120Z,7.57
2023-03-11T15:12:50.012Z,8.18
2023-03-11T15:17:57.834Z,11.85
2023-03-11T15:23:03.141Z,12.82
2023-03-11T15:28:32.518Z,17.20
2023-03-11T15:33:35.675Z,19.50
2023-03-11T15:38:38.891Z,18.35
2023-03-11T15:43:48.458Z,20.60
2023-03-11T15:48:51.625Z,12.90
2023-03-11T15:53:54.773Z,14.68
2023-03-11T15:58:59.541Z,14.00
2023-03-11T16:04:02.912Z,11.50
2023-03-11T16:09:06.394Z,11.60
2023-03-11T16:14:17.023Z,9.35
2023-03-11T16:19:20.236Z,8.15
2023-03-11T16:24:26.564Z,10.40
2023-03-11T16:29:31.223Z,8.98
2023-03-11T16:39:38.923Z,10.07
2023-03-11T16:49:46.549Z,13.05
2023-03-11T16:54:50.401Z,13.85
2023-03-11T16:59:55.106Z,16.43
2023-03-11T17:10:01.814Z,12.57
2023-03-11T17:15:08.640Z,13.27
2023-03-11T17:20:13.339Z,17.42
2023-03-11T17:30:37.180Z,18.90
2023-03-11T17:35:41.118Z,16.13
2023-03-11T17:40:44.326Z,14.15
2023-03-11T17:45:48.951Z,12.93
2023-03-11T17:55:55.160Z,13.90
2023-03-11T18:01:00.541Z,18.38
2023-03-11T18:06:05.889Z,17.33
2023-03-11T18:11:11.316Z,17.13
2023-03-11T18:16:18.287Z,15.80
2023-03-11T18:21:23.870Z,22.13
2023-03-11T18:26:29.960Z,23.23
2023-03-11T18:31:34.732Z,23.58
2023-03-11T18:36:38.654Z,21.70
2023-03-11T18:41:42.978Z,22.23
2023-03-11T18:46:47.652Z,21.58
2023-03-11T18:56:53.898Z,19.10
2023-03-11T19:01:58.537Z,18.77
2023-03-11T19:07:01.803Z,23.40
2023-03-11T19:12:05.334Z,38.90
2023-03-11T19:17:10.068Z,34.70
2023-03-11T19:22:13.325Z,27.33
2023-03-11T19:27:16.566Z,23.05
2023-03-11T19:32:21.240Z,20.80
2023-03-11T19:42:27.430Z,21.25
2023-03-11T19:47:32.117Z,22.52
2023-03-11T19:57:39.682Z,22.25
2023-03-11T20:02:44.925Z,20.88
2023-03-11T20:07:48.307Z,23.25
2023-03-11T20:13:01.796Z,20.98
2023-03-11T20:18:08.271Z,24.87
2023-03-11T20:23:11.599Z,22.00
2023-03-11T20:28:15.008Z,22.52
2023-03-11T20:33:19.751Z,19.98
2023-03-11T20:43:26.111Z,23.70
2023-03-11T20:48:31.780Z,22.48
2023-03-11T20:53:35.721Z,26.85
2023-03-11T20:58:39.782Z,22.17
2023-03-11T21:03:45.159Z,23.23
2023-03-11T21:08:49.430Z,22.58
2023-03-11T21:13:53.174Z,20.27
2023-03-11T21:18:57.979Z,21.85
2023-03-11T21:29:04.972Z,28.70
2023-03-11T21:34:11.995Z,26.52
2023-03-11T21:39:15.530Z,26.33
2023-03-11T21:44:19.180Z,20.70
2023-03-11T21:49:24.304Z,26.90
2023-03-11T21:54:27.763Z,25.20
2023-03-11T21:59:31.492Z,26.33
2023-03-11T22:04:36.253Z,23.08
2023-03-11T22:14:42.827Z,28.33
2023-03-11T22:19:47.800Z,22.65
2023-03-11T22:24:51.061Z,28.35
2023-03-11T22:29:54.335Z,17.50
2023-03-11T22:34:59.031Z,17.60
2023-03-11T22:40:02.258Z,20.70
2023-03-11T22:45:06.457Z,19.00
2023-03-11T22:50:12.345Z,22.90
2023-03-11T22:55:15.616Z,21.27
2023-03-11T23:00:21.219Z,20.08
2023-03-11T23:05:25.963Z,21.63
2023-03-11T23:10:29.177Z,22.95
2023-03-11T23:15:32.511Z,24.35
2023-03-11T23:20:38.510Z,23.70
2023-03-11T23:25:42.696Z,18.48
2023-03-11T23:30:45.941Z,21.93
2023-03-11T23:35:50.599Z,19.23
2023-03-11T23:40:53.864Z,19.33
2023-03-11T23:45:57.098Z,17.40
2023-03-11T23:51:02.347Z,18.33
2023-03-11T23:56:11.150Z,23.77
